Terminal Aerodrome Forecast
Issued by NWS

Home | Current Version | Previous Version | Graphics & Text | Print | Product List | Glossary On
Versions: 1 2 3 4 5 6 7 8 9 10 11 12 13 14 15 16
445
FTUS43 KICT 201121
TAFSLN
TAF
KSLN 201121Z 2012/2112 19011KT P6SM SKC
     FM201700 20013G20KT P6SM SKC
     FM210100 17011KT P6SM SKC=

USA.gov is the U.S. government's official web portal to all federal, state and local government web resources and services.